Time;durP1;ratioP1;P1;durP2;ratioP2;P2;SDS_P1;SDS_P2;PMS_P1;PMS_P2;Temp;Humidity;BMP_temperature;BMP_pressure;BME280_temperature;BME280_humidity;BME280_pressure;Samples;Min_cycle;Max_cycle;Signal;HPM_P1;HPM_P2
2021/08/05 00:03:59;;;;;;;;;;;13.60;99.90;;;;;;8293184;28;20364;-62
2021/08/05 00:08:00;;;;;;;;;;;13.50;99.90;;;;;;8293322;28;19912;-62
2021/08/05 00:12:00;;;;;;;;;;;13.50;99.90;;;;;;8276023;28;19905;-64
2021/08/05 00:16:01;;;;;;;;;;;13.40;99.90;;;;;;8293934;28;19905;-63
2021/08/05 00:20:02;;;;;;;;;;;13.60;99.90;;;;;;8293718;28;19996;-64
2021/08/05 00:24:02;;;;;;;;;;;13.70;99.90;;;;;;8293327;28;19909;-63
2021/08/05 00:28:03;;;;;;;;;;;13.70;99.90;;;;;;8293540;28;19909;-64
2021/08/05 00:32:04;;;;;;;;;;;13.70;99.90;;;;;;8292966;28;19910;-64
2021/08/05 00:36:04;;;;;;;;;;;13.70;99.90;;;;;;8293493;28;20004;-64
2021/08/05 00:40:05;;;;;;;;;;;13.70;99.90;;;;;;8293257;28;19910;-64
2021/08/05 00:44:06;;;;;;;;;;;13.70;99.90;;;;;;8293149;28;19960;-64
2021/08/05 00:48:06;;;;;;;;;;;13.60;99.90;;;;;;8292882;28;20109;-64
2021/08/05 00:52:07;;;;;;;;;;;13.50;99.90;;;;;;8292738;28;19909;-64
2021/08/05 00:56:08;;;;;;;;;;;13.40;99.90;;;;;;8292824;28;19909;-64
2021/08/05 01:00:09;;;;;;;;;;;13.40;99.90;;;;;;8274964;28;19919;-64
2021/08/05 01:04:10;;;;;;;;;;;13.50;99.90;;;;;;8274213;28;19956;-64
2021/08/05 01:08:14;;;;;;;;;;;13.50;99.90;;;;;;8292708;28;19928;-64
2021/08/05 01:12:14;;;;;;;;;;;13.50;99.90;;;;;;8292253;28;19956;-64
2021/08/05 01:16:16;;;;;;;;;;;13.50;99.90;;;;;;8292763;28;19906;-64
2021/08/05 01:20:18;;;;;;;;;;;13.60;99.90;;;;;;8277244;28;20110;-64
2021/08/05 01:24:20;;;;;;;;;;;13.50;99.90;;;;;;8298461;28;19906;-64
2021/08/05 01:28:21;;;;;;;;;;;13.40;99.90;;;;;;8297453;28;19916;-64
2021/08/05 01:32:21;;;;;;;;;;;13.40;99.90;;;;;;8296614;28;20295;-64
2021/08/05 01:36:25;;;;;;;;;;;13.60;99.90;;;;;;8298073;28;19906;-64
2021/08/05 01:40:25;;;;;;;;;;;13.60;99.90;;;;;;8297791;28;19959;-64
2021/08/05 01:44:27;;;;;;;;;;;13.50;99.90;;;;;;8297544;28;19947;-64
2021/08/05 01:48:28;;;;;;;;;;;13.70;99.90;;;;;;8297554;28;19916;-64
2021/08/05 01:52:28;;;;;;;;;;;13.60;99.90;;;;;;8297013;28;19905;-64
2021/08/05 01:56:29;;;;;;;;;;;13.60;99.90;;;;;;8297428;28;19905;-64
2021/08/05 02:00:29;;;;;;;;;;;13.60;99.90;;;;;;8296890;28;19910;-64
2021/08/05 02:04:33;;;;;;;;;;;13.50;99.90;;;;;;8296585;28;19906;-64
2021/08/05 02:08:40;;;;;;;;;;;13.40;99.90;;;;;;8296973;28;19905;-64
2021/08/05 02:12:42;;;;;;;;;;;13.60;99.90;;;;;;8295988;28;19905;-64
2021/08/05 02:16:45;;;;;;;;;;;13.60;99.90;;;;;;8296262;28;20403;-64
2021/08/05 02:20:46;;;;;;;;;;;13.50;99.90;;;;;;8278707;28;19963;-64
2021/08/05 02:24:47;;;;;;;;;;;13.50;99.90;;;;;;8296407;28;20120;-64
2021/08/05 02:28:48;;;;;;;;;;;13.50;99.90;;;;;;8296418;28;19963;-64
2021/08/05 02:32:49;;;;;;;;;;;13.40;99.90;;;;;;8295285;28;19910;-64
2021/08/05 02:36:49;;;;;;;;;;;13.40;99.90;;;;;;8296146;28;20382;-64
2021/08/05 02:40:51;;;;;;;;;;;13.60;99.90;;;;;;8295688;28;20024;-64
2021/08/05 02:44:52;;;;;;;;;;;13.60;99.90;;;;;;8296035;28;19909;-64
2021/08/05 02:48:53;;;;;;;;;;;13.80;99.90;;;;;;8295601;28;19992;-64
2021/08/05 02:52:54;;;;;;;;;;;13.60;99.90;;;;;;8295278;28;19906;-64
2021/08/05 02:56:54;;;;;;;;;;;13.50;99.90;;;;;;8277937;28;19992;-64
2021/08/05 03:00:55;;;;;;;;;;;13.50;99.90;;;;;;8295188;28;19909;-64
2021/08/05 03:04:55;;;;;;;;;;;13.60;99.90;;;;;;8294991;28;19928;-64
2021/08/05 03:08:56;;;;;;;;;;;13.60;99.90;;;;;;8295209;28;19912;-64
2021/08/05 03:12:56;;;;;;;;;;;13.50;99.90;;;;;;8294901;28;19906;-64
2021/08/05 03:16:57;;;;;;;;;;;13.50;99.90;;;;;;8295257;28;20375;-64
2021/08/05 03:20:57;;;;;;;;;;;13.60;99.90;;;;;;8294732;28;19954;-64
2021/08/05 03:24:58;;;;;;;;;;;13.60;99.90;;;;;;8295086;28;19967;-64
2021/08/05 03:28:58;;;;;;;;;;;13.70;99.90;;;;;;8294887;28;20368;-64
2021/08/05 03:33:00;;;;;;;;;;;13.80;99.90;;;;;;8294282;28;19912;-64
2021/08/05 03:37:00;;;;;;;;;;;13.60;99.90;;;;;;8295031;28;19906;-64
2021/08/05 03:41:02;;;;;;;;;;;13.50;99.90;;;;;;8294183;28;19909;-64
2021/08/05 03:45:02;;;;;;;;;;;13.50;99.90;;;;;;8293261;28;19910;-64
2021/08/05 03:49:03;;;;;;;;;;;13.50;99.90;;;;;;8293980;28;19940;-64
2021/08/05 03:53:03;;;;;;;;;;;13.60;99.90;;;;;;8293462;28;19913;-64
2021/08/05 03:57:04;;;;;;;;;;;13.70;99.90;;;;;;8276138;28;19984;-64
2021/08/05 04:01:04;;;;;;;;;;;13.60;99.90;;;;;;8275945;28;20591;-64
2021/08/05 04:05:05;;;;;;;;;;;13.50;99.90;;;;;;8293315;28;19971;-64
2021/08/05 04:09:05;;;;;;;;;;;13.50;99.90;;;;;;8293591;28;19909;-64
2021/08/05 04:13:06;;;;;;;;;;;13.50;99.90;;;;;;8293202;28;19967;-64
2021/08/05 04:17:06;;;;;;;;;;;13.50;99.90;;;;;;8293507;28;19925;-64
2021/08/05 04:21:07;;;;;;;;;;;13.70;99.90;;;;;;8293274;28;19918;-64
2021/08/05 04:25:09;;;;;;;;;;;14.00;99.90;;;;;;8293605;28;19912;-64
2021/08/05 04:29:09;;;;;;;;;;;14.10;99.90;;;;;;8293616;28;20016;-64
2021/08/05 04:33:10;;;;;;;;;;;13.90;99.90;;;;;;8293146;28;19909;-64
2021/08/05 04:37:10;;;;;;;;;;;14.00;99.90;;;;;;8292435;28;19928;-64
2021/08/05 04:41:10;;;;;;;;;;;13.90;99.90;;;;;;8292018;28;19931;-64
2021/08/05 04:45:11;;;;;;;;;;;14.00;99.90;;;;;;8293009;28;20348;-64
2021/08/05 04:49:12;;;;;;;;;;;14.10;99.90;;;;;;8292891;28;20280;-64
2021/08/05 04:53:16;;;;;;;;;;;13.90;99.90;;;;;;8292360;28;19933;-64
2021/08/05 04:57:17;;;;;;;;;;;13.90;99.90;;;;;;8298152;28;19923;-64
2021/08/05 05:01:17;;;;;;;;;;;13.90;99.90;;;;;;8298991;28;19913;-64
2021/08/05 05:05:18;;;;;;;;;;;13.90;99.90;;;;;;8298593;28;19984;-64
2021/08/05 05:09:18;;;;;;;;;;;14.00;99.90;;;;;;8298596;28;19909;-64
2021/08/05 05:13:19;;;;;;;;;;;14.00;99.90;;;;;;8298277;28;20529;-64
2021/08/05 05:17:19;;;;;;;;;;;14.00;99.90;;;;;;8298579;28;19940;-64
2021/08/05 05:21:20;;;;;;;;;;;14.20;99.90;;;;;;8298210;28;19992;-64
2021/08/05 05:25:20;;;;;;;;;;;14.40;99.90;;;;;;8298207;28;20312;-64
2021/08/05 05:29:21;;;;;;;;;;;14.30;99.90;;;;;;8298058;28;19905;-64
2021/08/05 05:33:21;;;;;;;;;;;14.40;99.90;;;;;;8297852;28;19911;-64
2021/08/05 05:37:22;;;;;;;;;;;14.60;99.90;;;;;;8297900;28;19920;-64
2021/08/05 05:41:23;;;;;;;;;;;14.70;99.90;;;;;;8297737;28;20006;-64
2021/08/05 05:45:23;;;;;;;;;;;14.90;99.90;;;;;;8297560;28;19906;-64
2021/08/05 05:49:24;;;;;;;;;;;14.90;99.90;;;;;;8298169;28;19905;-64
2021/08/05 05:53:24;;;;;;;;;;;15.20;99.90;;;;;;8297023;28;19905;-64
2021/08/05 05:57:25;;;;;;;;;;;15.20;99.90;;;;;;8297198;28;20299;-64
2021/08/05 06:01:25;;;;;;;;;;;15.30;99.90;;;;;;8297283;28;19909;-64
2021/08/05 06:05:25;;;;;;;;;;;15.70;99.90;;;;;;8296293;28;19912;-64
2021/08/05 06:09:26;;;;;;;;;;;16.00;99.90;;;;;;8296568;28;20313;-64
2021/08/05 06:13:26;;;;;;;;;;;16.00;99.90;;;;;;8296747;28;19906;-64
2021/08/05 06:17:27;;;;;;;;;;;15.90;99.90;;;;;;8297035;28;19996;-64
2021/08/05 06:21:28;;;;;;;;;;;16.00;99.90;;;;;;8289423;28;19921;-64
2021/08/05 06:25:28;;;;;;;;;;;16.20;99.90;;;;;;8266629;28;19909;-64
2021/08/05 06:29:32;;;;;;;;;;;16.40;99.90;;;;;;8274328;28;19913;-64
2021/08/05 06:33:32;;;;;;;;;;;16.50;99.90;;;;;;8276533;28;19909;-64
2021/08/05 06:37:33;;;;;;;;;;;16.80;99.90;;;;;;8284970;28;19916;-64
2021/08/05 06:41:34;;;;;;;;;;;16.90;99.90;;;;;;8277430;28;20387;-64
2021/08/05 06:45:34;;;;;;;;;;;17.10;99.90;;;;;;8278919;28;20394;-64
2021/08/05 06:49:35;;;;;;;;;;;17.30;99.90;;;;;;8278707;28;20001;-64
2021/08/05 06:53:36;;;;;;;;;;;17.40;99.90;;;;;;8278538;28;20368;-64
2021/08/05 06:57:36;;;;;;;;;;;17.40;99.90;;;;;;8274311;28;19914;-64
2021/08/05 07:01:37;;;;;;;;;;;17.70;99.90;;;;;;8262656;28;19967;-64
2021/08/05 07:05:37;;;;;;;;;;;17.80;99.90;;;;;;8262890;28;19947;-75
2021/08/05 07:09:38;;;;;;;;;;;18.10;99.90;;;;;;8251166;28;19916;-77
2021/08/05 07:13:38;;;;;;;;;;;18.30;99.90;;;;;;8263046;28;19910;-75
2021/08/05 07:17:44;;;;;;;;;;;18.30;99.90;;;;;;8263210;28;19910;-75
2021/08/05 07:21:44;;;;;;;;;;;18.20;99.90;;;;;;8260681;28;19916;-75
2021/08/05 07:25:45;;;;;;;;;;;18.10;99.90;;;;;;8278313;28;19905;-75
2021/08/05 07:29:45;;;;;;;;;;;18.00;99.90;;;;;;8271760;28;20481;-75
2021/08/05 07:33:48;;;;;;;;;;;18.00;99.90;;;;;;8273492;28;20296;-76
2021/08/05 07:37:49;;;;;;;;;;;18.00;99.90;;;;;;8248234;28;19956;-64
2021/08/05 07:41:49;;;;;;;;;;;17.90;99.90;;;;;;8283482;28;20483;-65
2021/08/05 07:45:49;;;;;;;;;;;17.80;99.90;;;;;;8288525;28;19928;-64
2021/08/05 07:49:50;;;;;;;;;;;17.80;99.90;;;;;;8293018;28;19909;-64
2021/08/05 07:53:51;;;;;;;;;;;18.00;99.90;;;;;;8292280;28;20430;-64
2021/08/05 07:57:51;;;;;;;;;;;17.90;99.90;;;;;;8293108;28;20329;-64
2021/08/05 08:01:52;;;;;;;;;;;17.60;99.90;;;;;;8289844;28;19913;-64
2021/08/05 08:05:53;;;;;;;;;;;17.90;99.90;;;;;;8288705;28;20364;-64
2021/08/05 08:09:54;;;;;;;;;;;18.10;99.90;;;;;;8285680;28;19929;-65
2021/08/05 08:13:55;;;;;;;;;;;18.20;99.90;;;;;;8285841;28;19905;-65
2021/08/05 08:17:55;;;;;;;;;;;18.50;99.90;;;;;;8290564;28;19909;-65
2021/08/05 08:21:56;;;;;;;;;;;19.00;99.90;;;;;;8290173;28;19928;-65
2021/08/05 08:25:56;;;;;;;;;;;18.90;99.90;;;;;;8273390;28;19932;-65
2021/08/05 08:29:57;;;;;;;;;;;18.80;99.90;;;;;;8294254;28;19976;-65
2021/08/05 08:33:57;;;;;;;;;;;19.00;99.90;;;;;;8300645;28;20383;-65
2021/08/05 08:37:58;;;;;;;;;;;19.00;99.90;;;;;;8300573;28;20532;-65
2021/08/05 08:41:58;;;;;;;;;;;18.90;99.90;;;;;;8298471;28;19914;-64
2021/08/05 08:45:59;;;;;;;;;;;19.00;99.90;;;;;;8301878;28;19943;-65
2021/08/05 08:50:00;;;;;;;;;;;19.50;99.90;;;;;;8301321;28;19968;-65
2021/08/05 08:54:07;;;;;;;;;;;20.10;99.90;;;;;;8302519;28;20331;-64
2021/08/05 08:58:08;;;;;;;;;;;20.20;99.90;;;;;;8293904;28;19948;-65
2021/08/05 09:02:08;;;;;;;;;;;20.80;99.90;;;;;;8284684;28;19917;-65
2021/08/05 09:06:08;;;;;;;;;;;20.70;99.90;;;;;;8291330;28;19981;-65
2021/08/05 09:10:09;;;;;;;;;;;20.50;99.90;;;;;;8287677;28;20347;-65
2021/08/05 09:14:10;;;;;;;;;;;20.80;99.90;;;;;;8286239;28;19964;-65
2021/08/05 09:18:24;;;;;;;;;;;20.80;99.90;;;;;;8268513;28;19913;-65
2021/08/05 09:22:44;;;;;;;;;;;20.70;99.90;;;;;;8287035;28;20036;-65
2021/08/05 09:26:46;;;;;;;;;;;20.40;99.90;;;;;;8294062;28;19913;-65
2021/08/05 09:30:47;;;;;;;;;;;20.70;99.90;;;;;;8289109;28;19910;-65
2021/08/05 09:34:47;;;;;;;;;;;21.50;99.90;;;;;;8302722;28;20296;-65
2021/08/05 09:38:48;;;;;;;;;;;21.60;99.90;;;;;;8282002;28;20380;-64
2021/08/05 09:42:55;;;;;;;;;;;21.40;99.90;;;;;;8298220;28;20279;-65
2021/08/05 09:47:02;;;;;;;;;;;21.80;99.90;;;;;;8297658;28;20395;-65
2021/08/05 09:51:04;;;;;;;;;;;22.30;99.90;;;;;;8297174;28;19905;-65
2021/08/05 09:55:08;;;;;;;;;;;21.90;99.90;;;;;;8297148;28;19906;-65
2021/08/05 09:59:10;;;;;;;;;;;21.50;99.90;;;;;;8294706;28;19920;-65
2021/08/05 10:03:11;;;;;;;;;;;21.80;99.90;;;;;;8264010;28;20303;-65
2021/08/05 10:07:11;;;;;;;;;;;22.40;99.90;;;;;;8279413;28;19906;-65
2021/08/05 10:11:12;;;;;;;;;;;22.40;99.90;;;;;;8280990;28;19909;-65
2021/08/05 10:15:13;;;;;;;;;;;22.30;99.90;;;;;;8273127;28;19905;-65
2021/08/05 10:19:16;;;;;;;;;;;22.40;99.90;;;;;;8264062;28;19963;-65
2021/08/05 10:23:17;;;;;;;;;;;22.20;99.90;;;;;;8281604;28;20358;-65
2021/08/05 10:27:19;;;;;;;;;;;22.70;99.90;;;;;;8279569;28;19920;-65
2021/08/05 10:31:20;;;;;;;;;;;22.80;99.90;;;;;;8269536;28;19913;-65
2021/08/05 10:35:20;;;;;;;;;;;22.50;99.90;;;;;;8284222;28;19912;-65
2021/08/05 10:39:20;;;;;;;;;;;22.50;99.90;;;;;;8277621;28;19910;-65
2021/08/05 10:43:21;;;;;;;;;;;22.30;99.90;;;;;;8286374;28;19909;-65
2021/08/05 10:47:25;;;;;;;771.95;717.50;;;22.60;99.90;;;;;;8274401;28;20431;-65
2021/08/05 10:51:26;;;;;;;2.55;1.25;;;23.00;99.90;;;;;;8291349;28;20053;-64
2021/08/05 10:55:35;;;;;;;2.58;1.40;;;22.50;99.90;;;;;;8292963;28;20582;-65
2021/08/05 10:59:56;;;;;;;1.42;1.20;;;22.40;99.90;;;;;;8294301;28;20504;-65
2021/08/05 11:03:57;;;;;;;1.83;1.10;;;23.20;99.90;;;;;;8293618;28;20401;-65
2021/08/05 11:08:07;;;;;;;1.30;1.05;;;23.90;99.90;;;;;;8294528;28;20030;-65
2021/08/05 11:12:48;;;;;;;1.30;1.20;;;23.70;99.90;;;;;;8293322;28;20613;-65
2021/08/05 11:16:58;;;;;;;1.65;1.17;;;24.20;99.90;;;;;;8275931;28;20088;-65
2021/08/05 11:20:59;;;;;;;1.45;0.90;;;24.40;99.90;;;;;;8292711;28;20486;-65
2021/08/05 11:25:00;;;;;;;1.83;1.20;;;24.90;99.90;;;;;;8291853;28;20040;-65
2021/08/05 11:29:00;;;;;;;2.03;1.10;;;26.90;99.90;;;;;;8293373;28;20013;-65
2021/08/05 11:33:01;;;;;;;1.92;1.42;;;26.10;99.90;;;;;;8272666;28;20565;-65
2021/08/05 11:37:09;;;;;;;545.95;461.17;;;24.80;99.90;;;;;;8274219;28;20038;-65
2021/08/05 11:41:09;;;;;;;1.98;1.10;;;24.00;99.90;;;;;;8292351;28;20117;-65
2021/08/05 11:45:10;;;;;;;1.00;0.90;;;23.20;99.90;;;;;;8291830;28;20037;-65
2021/08/05 11:49:42;;;;;;;1.98;1.10;;;22.90;99.90;;;;;;8292671;28;20092;-65
2021/08/05 11:53:43;;;;;;;1.58;0.90;;;22.50;99.90;;;;;;8224301;28;20034;-65
2021/08/05 11:57:52;;;;;;;1.52;1.10;;;22.60;99.90;;;;;;8292901;28;20120;-65
2021/08/05 12:02:10;;;;;;;1.83;0.82;;;22.60;99.90;;;;;;8274961;28;20030;-64
2021/08/05 12:06:22;;;;;;;1.80;1.10;;;22.40;99.90;;;;;;8274407;28;20029;-65
2021/08/05 12:10:31;;;;;;;1.80;1.00;;;24.80;99.90;;;;;;8280216;28;20101;-66
2021/08/05 12:14:32;;;;;;;1.00;0.90;;;29.40;99.90;;;;;;8292185;28;20037;-65
2021/08/05 12:18:39;;;;;;;1.17;0.90;;;30.60;97.20;;;;;;8292071;28;20084;-65
2021/08/05 12:22:43;;;;;;;1.77;1.05;;;31.20;87.10;;;;;;8291427;28;20393;-65
2021/08/05 12:26:44;;;;;;;0.98;0.90;;;29.10;90.20;;;;;;8273398;28;20018;-65
2021/08/05 12:30:47;;;;;;;1.10;0.90;;;28.50;92.00;;;;;;8291529;28;20022;-65
2021/08/05 12:34:47;;;;;;;1.08;0.93;;;28.50;92.80;;;;;;8288298;28;20559;-65
2021/08/05 12:39:05;;;;;;;0.98;0.80;;;28.20;91.30;;;;;;8274543;28;20030;-65
2021/08/05 12:43:08;;;;;;;1.27;0.98;;;27.30;92.60;;;;;;8264916;28;20023;-65
2021/08/05 12:47:10;;;;;;;1.20;0.80;;;26.80;95.50;;;;;;8271186;28;20030;-65
2021/08/05 12:51:19;;;;;;;1.00;0.80;;;26.70;94.70;;;;;;8288991;28;20586;-65
2021/08/05 12:55:19;;;;;;;0.73;0.70;;;26.70;95.80;;;;;;8278298;28;20022;-65
2021/08/05 12:59:27;;;;;;;0.70;0.70;;;26.70;94.30;;;;;;8283351;28;20235;-65
2021/08/05 13:03:38;;;;;;;0.68;0.68;;;26.20;97.10;;;;;;8276840;28;20025;-65
2021/08/05 13:07:41;;;;;;;1.25;0.82;;;25.80;95.90;;;;;;8281069;28;20053;-65
2021/08/05 13:11:41;;;;;;;547.47;472.48;;;24.80;98.30;;;;;;8281909;28;20026;-65
2021/08/05 13:15:43;;;;;;;517.20;413.95;;;23.70;99.90;;;;;;8289673;28;20033;-65
2021/08/05 13:20:03;;;;;;;1.10;0.90;;;23.30;99.90;;;;;;8295638;28;20046;-66
2021/08/05 13:24:23;;;;;;;1.30;0.88;;;23.20;99.90;;;;;;8296608;28;20111;-66
2021/08/05 13:28:26;;;;;;;3.20;1.08;;;23.20;99.90;;;;;;8296665;28;20026;-65
2021/08/05 13:32:27;;;;;;;1.02;0.90;;;22.90;99.90;;;;;;8291147;28;20407;-65
2021/08/05 13:36:36;;;;;;;3.03;0.93;;;22.50;99.90;;;;;;8296258;28;20047;-65
2021/08/05 13:40:37;;;;;;;4.80;1.08;;;21.60;99.90;;;;;;8297181;28;20025;-65
2021/08/05 13:44:38;;;;;;;2.80;1.25;;;21.00;99.90;;;;;;8297150;28;20412;-65
2021/08/05 13:48:38;;;;;;;40.58;25.95;;;19.90;99.90;;;;;;8292561;28;20034;-63
2021/08/05 13:52:39;;;;;;;2.00;1.20;;;18.80;99.90;;;;;;8286800;28;20633;-64
2021/08/05 13:56:39;;;;;;;1.88;1.30;;;18.00;99.90;;;;;;8288847;28;20374;-64
2021/08/05 14:00:40;;;;;;;3.95;1.45;;;17.90;99.90;;;;;;8289862;28;20030;-64
2021/08/05 14:04:40;;;;;;;371.95;347.05;;;17.90;99.90;;;;;;8295121;28;20022;-64
2021/08/05 14:08:41;;;;;;;301.92;282.90;;;18.00;99.90;;;;;;8295753;28;20014;-64
2021/08/05 14:12:42;;;;;;;51.53;48.63;;;18.40;99.90;;;;;;8295563;28;20087;-65
2021/08/05 14:16:45;;;;;;;16.45;15.05;;;18.90;99.90;;;;;;8294406;28;20028;-64
2021/08/05 14:20:46;;;;;;;11.95;10.73;;;19.10;99.90;;;;;;8293004;28;20038;-65
2021/08/05 14:24:47;;;;;;;18.35;9.85;;;19.30;99.90;;;;;;8289871;28;20475;-65
2021/08/05 14:28:47;;;;;;;24.25;8.63;;;19.60;99.90;;;;;;8272292;28;20746;-65
2021/08/05 14:32:48;;;;;;;60.60;19.15;;;19.50;99.90;;;;;;8290630;28;20582;-65
2021/08/05 14:36:48;;;;;;;82.05;24.95;;;19.50;99.90;;;;;;8275512;28;20038;-65
2021/08/05 14:40:49;;;;;;;77.90;24.10;;;19.50;99.90;;;;;;8276783;28;20032;-65
2021/08/05 14:44:49;;;;;;;63.50;19.92;;;19.40;99.90;;;;;;8275893;28;20030;-65
2021/08/05 14:48:50;;;;;;;79.18;24.98;;;19.20;99.90;;;;;;8291730;28;20026;-65
2021/08/05 14:52:50;;;;;;;78.07;24.52;;;19.10;99.90;;;;;;8275719;28;20123;-65
2021/08/05 14:56:51;;;;;;;75.47;24.00;;;19.10;99.90;;;;;;8276376;28;20045;-65
2021/08/05 15:00:52;;;;;;;73.68;24.00;;;19.20;99.90;;;;;;8294288;28;20101;-65
2021/08/05 15:04:52;;;;;;;70.30;23.70;;;18.90;99.90;;;;;;8290836;28;20022;-65
2021/08/05 15:08:53;;;;;;;67.35;23.63;;;18.60;99.90;;;;;;8291548;28;20030;-65
2021/08/05 15:12:53;;;;;;;67.57;23.52;;;18.20;99.90;;;;;;8293688;28;20026;-65
2021/08/05 15:16:54;;;;;;;51.00;21.42;;;18.00;99.90;;;;;;8293882;28;20056;-64
2021/08/05 15:20:54;;;;;;;54.33;22.25;;;17.50;99.90;;;;;;8278291;28;20108;-64
2021/08/05 15:24:55;;;;;;;50.53;21.02;;;16.60;99.90;;;;;;8292129;28;20036;-63
2021/08/05 15:28:55;;;;;;;53.30;21.13;;;16.00;99.90;;;;;;8293988;28;20026;-64
2021/08/05 15:32:56;;;;;;;49.90;21.40;;;15.50;99.90;;;;;;8280432;28;20038;-63
2021/08/05 15:36:57;;;;;;;51.40;21.60;;;15.20;99.90;;;;;;8290008;28;20060;-63
2021/08/05 15:40:58;;;;;;;49.15;21.10;;;15.10;99.90;;;;;;8274405;28;20030;-63
2021/08/05 15:44:58;;;;;;;51.60;21.35;;;15.10;99.90;;;;;;8284027;28;20056;-63
2021/08/05 15:48:59;;;;;;;48.53;22.08;;;15.10;99.90;;;;;;8266711;28;20033;-64
2021/08/05 15:52:59;;;;;;;50.47;21.63;;;15.30;99.90;;;;;;8289058;28;20033;-64
2021/08/05 15:57:00;;;;;;;52.92;21.40;;;15.50;99.90;;;;;;8273402;28;20038;-64
2021/08/05 16:01:01;;;;;;;57.83;21.48;;;16.00;99.90;;;;;;8267128;28;20077;-75
2021/08/05 16:05:01;;;;;;;63.08;22.35;;;16.70;99.90;;;;;;8269400;28;20022;-76
2021/08/05 16:09:04;;;;;;;70.15;22.52;;;17.90;99.90;;;;;;8265055;28;20084;-76
2021/08/05 16:13:04;;;;;;;75.55;24.17;;;19.70;99.90;;;;;;8279913;28;20493;-77
2021/08/05 16:17:05;;;;;;;11.80;10.77;;;21.90;99.90;;;;;;8257966;28;20117;-77
2021/08/05 16:21:06;;;;;;;78.72;25.15;;;23.40;99.90;;;;;;8279893;28;20173;-76
2021/08/05 16:25:09;;;;;;;86.57;26.70;;;23.10;99.90;;;;;;8254886;28;20031;-66
2021/08/05 16:29:09;;;;;;;78.82;25.45;;;23.20;99.90;;;;;;8275980;28;20397;-65
2021/08/05 16:33:10;;;;;;;54.95;21.65;;;23.60;99.90;;;;;;8275698;28;20022;-66
2021/08/05 16:37:10;;;;;;;;;;;23.20;99.90;;;;;;8265304;28;20034;-66
2021/08/05 16:41:11;;;;;;;71.70;21.90;;;22.70;99.90;;;;;;8282087;28;20515;-66
2021/08/05 16:45:12;;;;;;;63.17;22.65;;;23.00;99.90;;;;;;8290493;28;20033;-67
2021/08/05 16:49:16;;;;;;;65.28;22.63;;;24.80;99.90;;;;;;8272931;28;20026;-66
2021/08/05 16:53:17;;;;;;;75.05;25.08;;;25.70;99.90;;;;;;8263477;28;20037;-67
2021/08/05 16:57:17;;;;;;;65.30;22.55;;;27.10;99.90;;;;;;8292075;28;20049;-67
2021/08/05 17:01:18;;;;;;;76.95;24.45;;;27.60;99.90;;;;;;8282383;28;20034;-67
2021/08/05 17:05:19;;;;;;;;;;;27.30;99.90;;;;;;8288375;28;20054;-66
2021/08/05 17:09:19;;;;;;;;;;;25.60;99.90;;;;;;8290238;28;19913;-66
2021/08/05 17:13:20;;;;;;;;;;;24.10;99.90;;;;;;8261017;28;19916;-66
2021/08/05 17:17:20;;;;;;;;;;;23.90;99.90;;;;;;8282639;28;19917;-67
2021/08/05 17:21:20;;;;;;;;;;;23.10;99.90;;;;;;8265070;28;19909;-66
2021/08/05 17:25:23;;;;;;;;;;;22.20;99.90;;;;;;8289525;28;19916;-66
2021/08/05 17:29:23;;;;;;;;;;;21.00;99.90;;;;;;8291594;28;19924;-66
2021/08/05 17:33:24;;;;;;;;;;;20.20;99.90;;;;;;8292787;28;19956;-67
2021/08/05 17:37:24;;;;;;;;;;;19.70;99.90;;;;;;8296792;28;19955;-66
2021/08/05 17:41:25;;;;;;;;;;;19.20;99.90;;;;;;8295837;28;19913;-66
2021/08/05 17:45:27;;;;;;;;;;;18.70;99.90;;;;;;8284932;28;20082;-66
2021/08/05 17:49:28;;;;;;;;;;;18.60;99.90;;;;;;8274365;28;19913;-66
2021/08/05 17:53:28;;;;;;;;;;;18.60;99.90;;;;;;8283356;28;19913;-66
2021/08/05 17:57:29;;;;;;;;;;;18.50;99.90;;;;;;8296072;28;19913;-67
2021/08/05 18:01:29;;;;;;;;;;;18.40;99.90;;;;;;8295189;28;19944;-66
2021/08/05 18:05:30;;;;;;;;;;;18.20;99.90;;;;;;8295857;28;19959;-66
2021/08/05 18:09:31;;;;;;;;;;;17.90;99.90;;;;;;8296081;28;19909;-66
2021/08/05 18:13:32;;;;;;;;;;;17.70;99.90;;;;;;8296770;28;20372;-66
2021/08/05 18:17:32;;;;;;;;;;;17.60;99.90;;;;;;8297097;28;19912;-66
2021/08/05 18:21:33;;;;;;;;;;;17.50;99.90;;;;;;8296463;28;19916;-66
2021/08/05 18:25:34;;;;;;;;;;;17.40;99.90;;;;;;8296663;28;19905;-66
2021/08/05 18:29:34;;;;;;;;;;;17.30;99.90;;;;;;8296517;28;19905;-66
2021/08/05 18:33:35;;;;;;;;;;;17.30;99.90;;;;;;8296141;28;19916;-66
2021/08/05 18:37:36;;;;;;;;;;;17.10;99.90;;;;;;8296427;28;20000;-66
2021/08/05 18:41:36;;;;;;;;;;;17.00;99.90;;;;;;8278508;28;20484;-66
2021/08/05 18:45:37;;;;;;;;;;;17.00;99.90;;;;;;8278304;28;19905;-66
2021/08/05 18:49:37;;;;;;;;;;;16.90;99.90;;;;;;8295703;28;19941;-66
2021/08/05 18:53:38;;;;;;;;;;;16.70;99.90;;;;;;8296572;28;19905;-65
2021/08/05 18:57:38;;;;;;;;;;;16.80;99.90;;;;;;8309795;28;19924;-66
2021/08/05 19:01:39;;;;;;;;;;;16.80;99.90;;;;;;8295178;28;19967;-66
2021/08/05 19:05:40;;;;;;;;;;;16.60;99.90;;;;;;8294996;28;20390;-66
2021/08/05 19:09:40;;;;;;;;;;;16.50;99.90;;;;;;8295370;28;19905;-66
2021/08/05 19:13:41;;;;;;;;;;;16.50;99.90;;;;;;8294504;28;19909;-66
2021/08/05 19:17:41;;;;;;;;;;;16.40;99.90;;;;;;8277812;28;19959;-67
2021/08/05 19:21:42;;;;;;;;;;;16.50;99.90;;;;;;8294367;28;19913;-66
2021/08/05 19:25:42;;;;;;;;;;;16.50;99.90;;;;;;8294762;28;19909;-66
2021/08/05 19:29:43;;;;;;;;;;;16.40;99.90;;;;;;8295163;28;19909;-66
2021/08/05 19:33:43;;;;;;;;;;;16.40;99.90;;;;;;8294830;28;19909;-65
2021/08/05 19:37:43;;;;;;;;;;;16.30;99.90;;;;;;8295013;28;19905;-66
2021/08/05 19:41:44;;;;;;;;;;;16.20;99.90;;;;;;8294843;28;19940;-66
2021/08/05 19:45:44;;;;;;;;;;;16.10;99.90;;;;;;8294932;28;19905;-66
2021/08/05 19:49:45;;;;;;;;;;;16.10;99.90;;;;;;8294733;28;19913;-66
2021/08/05 19:53:45;;;;;;;;;;;16.00;99.90;;;;;;8293967;28;19939;-66
2021/08/05 19:57:46;;;;;;;;;;;16.10;99.90;;;;;;8294319;28;20273;-66
2021/08/05 20:01:46;;;;;;;;;;;16.00;99.90;;;;;;8293794;28;19915;-66
2021/08/05 20:05:47;;;;;;;;;;;16.00;99.90;;;;;;8293545;28;19940;-65
2021/08/05 20:09:47;;;;;;;;;;;15.90;99.90;;;;;;8293899;28;19963;-65
2021/08/05 20:13:48;;;;;;;;;;;16.00;99.90;;;;;;8293707;28;19996;-66
2021/08/05 20:17:48;;;;;;;;;;;16.00;99.90;;;;;;8293967;28;20376;-66
2021/08/05 20:21:49;;;;;;;;;;;15.90;99.90;;;;;;8293307;28;19967;-65
2021/08/05 20:25:49;;;;;;;;;;;16.00;99.90;;;;;;8292726;28;19905;-66
2021/08/05 20:29:50;;;;;;;;;;;16.10;99.90;;;;;;8293649;28;19960;-66
2021/08/05 20:33:51;;;;;;;;;;;16.10;99.90;;;;;;8293163;28;19905;-66
2021/08/05 20:37:51;;;;;;;;;;;16.20;99.90;;;;;;8292681;28;19905;-65
2021/08/05 20:41:52;;;;;;;;;;;16.20;99.90;;;;;;8292076;28;19982;-66
2021/08/05 20:45:52;;;;;;;;;;;16.20;99.90;;;;;;8293297;28;20277;-66
2021/08/05 20:49:53;;;;;;;;;;;16.20;99.90;;;;;;8293276;28;20372;-66
2021/08/05 20:53:53;;;;;;;;;;;16.20;99.90;;;;;;8292910;28;19905;-66
2021/08/05 20:57:53;;;;;;;;;;;16.10;99.90;;;;;;8293211;28;19913;-65
2021/08/05 21:01:54;;;;;;;;;;;16.00;99.90;;;;;;8292643;28;19916;-67
2021/08/05 21:05:54;;;;;;;;;;;16.00;99.90;;;;;;8292698;28;20346;-65
2021/08/05 21:09:55;;;;;;;;;;;16.00;99.90;;;;;;8292921;28;19959;-65
2021/08/05 21:13:55;;;;;;;;;;;15.90;99.90;;;;;;8292697;28;19951;-65
2021/08/05 21:17:56;;;;;;;;;;;15.80;99.90;;;;;;8275443;28;19905;-66
2021/08/05 21:21:56;;;;;;;;;;;15.70;99.90;;;;;;8292501;28;19909;-65
2021/08/05 21:25:57;;;;;;;;;;;15.60;99.90;;;;;;8275153;28;19937;-66
2021/08/05 21:29:57;;;;;;;;;;;15.50;99.90;;;;;;8292605;28;19921;-66
2021/08/05 21:33:57;;;;;;;;;;;15.50;99.90;;;;;;8292465;28;19905;-66
2021/08/05 21:37:58;;;;;;;;;;;15.40;99.90;;;;;;8295890;28;19948;-65
2021/08/05 21:41:58;;;;;;;;;;;15.20;99.90;;;;;;8298002;28;19917;-66
2021/08/05 21:45:59;;;;;;;;;;;15.00;99.90;;;;;;8280629;28;19914;-66
2021/08/05 21:49:59;;;;;;;;;;;14.90;99.90;;;;;;8298032;28;19937;-66
2021/08/05 21:54:00;;;;;;;;;;;14.70;99.90;;;;;;8280138;28;20360;-66
2021/08/05 21:58:00;;;;;;;;;;;14.60;99.90;;;;;;8297795;28;19914;-65
2021/08/05 22:02:01;;;;;;;;;;;14.90;99.90;;;;;;8296784;28;19909;-66
2021/08/05 22:06:02;;;;;;;;;;;15.10;99.90;;;;;;8297680;28;19905;-65
2021/08/05 22:10:02;;;;;;;;;;;15.10;99.90;;;;;;8297864;28;20315;-66
2021/08/05 22:14:03;;;;;;;;;;;15.20;99.90;;;;;;8279279;28;19992;-66
2021/08/05 22:18:03;;;;;;;;;;;15.30;99.90;;;;;;8297479;28;19906;-66
2021/08/05 22:22:04;;;;;;;;;;;15.30;99.90;;;;;;8294012;28;19937;-65
2021/08/05 22:26:04;;;;;;;;;;;15.40;99.90;;;;;;8264839;28;20407;-66
2021/08/05 22:30:05;;;;;;;;;;;15.50;99.90;;;;;;8284223;28;19910;-66
2021/08/05 22:34:05;;;;;;;;;;;15.60;99.90;;;;;;8264010;28;19914;-65
2021/08/05 22:38:06;;;;;;;;;;;15.60;99.90;;;;;;8274522;28;20004;-65